YTNK

Tennant Creek Airport

Tennant Creek, Australia
TAF YTNK 211909Z 2120/2208 01010KT CAVOK
Issued Valid From Valid To
Jan-21 @ 19:09 UTC
(5 hours ago)
Jan-21 @ 20:00 UTC
(4 hours ago)
Jan-22 @ 08:00 UTC
(in 8 hours)
Jan-21 @ 20:00 to Jan-22 @ 08:00
TAF YTNK 211909Z 2120/2208 01010KT CAVOK
Wind Visibility Clouds Conditions
10° at 10 knots 10,000+ meters
  • No significant clouds
TAF YTNK 211909Z 2120/2208 01010KT CAVOK
Issued Jan-21 @ 19:09 UTC
(5 hours ago)
Valid From Jan-21 @ 20:00 UTC
(4 hours ago)
Valid To Jan-22 @ 08:00 UTC
(in 8 hours)
Jan-21 @ 20:00 - Jan-22 @ 08:00
Wind Visibility
10° at 10 knots 10,000+ meters
Clouds
  • No significant clouds
Conditions